createdAt,value
2019-04-05T00:01:13.024Z,19.48
2019-04-05T00:03:44.252Z,21.20
2019-04-05T00:06:14.023Z,21.45
2019-04-05T00:08:43.854Z,19.87
2019-04-05T00:11:16.347Z,19.70
2019-04-05T00:13:46.040Z,19.95
2019-04-05T00:16:15.650Z,19.35
2019-04-05T00:18:45.224Z,22.20
2019-04-05T00:21:15.143Z,19.65
2019-04-05T00:23:45.095Z,17.35
2019-04-05T00:26:14.752Z,17.50
2019-04-05T00:28:47.276Z,19.87
2019-04-05T00:31:16.957Z,19.87
2019-04-05T00:33:46.618Z,19.98
2019-04-05T00:36:16.457Z,24.77
2019-04-05T00:38:47.547Z,18.10
2019-04-05T00:41:17.293Z,16.75
2019-04-05T00:43:47.052Z,16.67
2019-04-05T00:46:16.807Z,16.77
2019-04-05T00:48:46.475Z,16.50
2019-04-05T00:51:16.559Z,19.52
2019-04-05T00:53:46.320Z,19.80
2019-04-05T00:56:16.046Z,19.40
2019-04-05T00:58:45.941Z,16.42
2019-04-05T01:01:15.587Z,16.48
2019-04-05T01:03:45.206Z,19.60
2019-04-05T01:06:14.974Z,22.75
2019-04-05T01:08:44.729Z,19.85
2019-04-05T01:11:14.432Z,22.70
2019-04-05T01:13:44.250Z,19.00
2019-04-05T01:16:13.817Z,19.95
2019-04-05T01:18:43.370Z,16.45
2019-04-05T01:21:15.318Z,22.50
2019-04-05T01:23:46.435Z,19.02
2019-04-05T01:26:18.607Z,21.85
2019-04-05T01:28:48.596Z,21.70
2019-04-05T01:31:18.252Z,18.67
2019-04-05T01:33:48.065Z,23.45
2019-04-05T01:36:18.045Z,21.45
2019-04-05T01:38:48.614Z,22.82
2019-04-05T01:41:18.462Z,21.60
2019-04-05T01:43:48.191Z,20.37
2019-04-05T01:46:17.911Z,23.15
2019-04-05T01:48:47.583Z,20.37
2019-04-05T01:51:17.448Z,17.92
2019-04-05T01:53:47.223Z,21.20
2019-04-05T01:56:16.865Z,24.05
2019-04-05T01:58:46.473Z,22.55
2019-04-05T02:01:16.220Z,21.52
2019-04-05T02:03:45.801Z,19.23
2019-04-05T02:06:15.414Z,27.07
2019-04-05T02:08:45.142Z,26.45
2019-04-05T02:11:15.058Z,23.67
2019-04-05T02:13:44.723Z,20.55
2019-04-05T02:16:14.318Z,22.37
2019-04-05T02:18:43.959Z,21.75
2019-04-05T02:21:13.583Z,28.80
2019-04-05T02:23:43.315Z,27.60
2019-04-05T02:26:12.917Z,30.62
2019-04-05T02:28:42.552Z,27.27
2019-04-05T02:31:12.283Z,27.85
2019-04-05T02:33:41.979Z,37.70
2019-04-05T02:36:12.821Z,28.77
2019-04-05T02:38:42.554Z,24.10
2019-04-05T02:41:13.015Z,27.10
2019-04-05T02:43:43.640Z,32.88
2019-04-05T02:46:23.494Z,27.85
2019-04-05T02:48:50.418Z,29.65
2019-04-05T02:54:13.803Z,27.60
2019-04-05T02:56:45.108Z,30.35
2019-04-05T02:59:16.255Z,27.80
2019-04-05T03:01:46.019Z,26.50
2019-04-05T03:04:16.554Z,26.52
2019-04-05T03:06:46.680Z,34.25
2019-04-05T03:09:16.407Z,28.65
2019-04-05T03:11:46.173Z,32.58
2019-04-05T03:14:15.884Z,29.92
2019-04-05T03:16:48.287Z,37.23
2019-04-05T03:19:23.887Z,30.82
2019-04-05T03:21:58.442Z,29.00
2019-04-05T03:24:31.518Z,27.37
2019-04-05T03:27:10.109Z,32.70
2019-04-05T03:29:40.153Z,32.95
2019-04-05T03:32:10.079Z,36.38
2019-04-05T03:34:40.863Z,25.85
2019-04-05T03:37:11.030Z,32.38
2019-04-05T03:39:41.096Z,35.10
2019-04-05T03:42:11.569Z,34.35
2019-04-05T03:44:42.312Z,30.35
2019-04-05T03:47:11.946Z,35.50
2019-04-05T03:49:41.992Z,31.10
2019-04-05T03:52:11.780Z,31.50
2019-04-05T03:54:41.774Z,31.73
2019-04-05T03:57:12.289Z,31.33
2019-04-05T03:59:41.939Z,37.20
2019-04-05T04:02:11.977Z,34.35
2019-04-05T04:04:42.054Z,42.75
2019-04-05T04:07:12.403Z,34.67
2019-04-05T04:09:42.032Z,34.05
2019-04-05T04:12:11.737Z,28.90
2019-04-05T04:14:41.893Z,40.85
2019-04-05T04:17:13.364Z,35.90
2019-04-05T04:19:44.471Z,38.88
2019-04-05T04:22:28.939Z,37.03
2019-04-05T04:25:00.028Z,36.58
2019-04-05T04:27:49.946Z,33.60
2019-04-05T04:30:19.959Z,31.27
2019-04-05T04:32:49.767Z,39.20
2019-04-05T04:35:19.681Z,29.52
2019-04-05T04:37:49.598Z,30.37
2019-04-05T04:40:20.389Z,35.23
2019-04-05T04:42:50.932Z,34.30
2019-04-05T04:45:20.942Z,40.92
2019-04-05T04:47:50.655Z,34.58
2019-04-05T04:50:26.818Z,30.52
2019-04-05T04:52:56.935Z,38.02
2019-04-05T04:56:01.162Z,33.48
2019-04-05T04:58:31.003Z,38.20
2019-04-05T05:01:01.224Z,40.05
2019-04-05T05:03:49.982Z,32.63
2019-04-05T05:06:20.098Z,33.23
2019-04-05T05:08:49.817Z,41.05
2019-04-05T05:11:21.769Z,31.12
2019-04-05T05:13:51.516Z,42.93
2019-04-05T05:16:21.341Z,32.20
2019-04-05T05:18:51.040Z,41.83
2019-04-05T05:21:21.021Z,32.60
2019-04-05T05:23:51.347Z,36.40
2019-04-05T05:26:21.411Z,33.80
2019-04-05T05:28:51.396Z,30.27
2019-04-05T05:31:21.395Z,38.00
2019-04-05T05:33:51.624Z,37.63
2019-04-05T05:36:21.896Z,36.98
2019-04-05T05:38:51.656Z,32.80
2019-04-05T05:41:21.304Z,32.70
2019-04-05T05:43:51.075Z,32.40
2019-04-05T05:46:20.660Z,34.03
2019-04-05T05:48:50.326Z,31.33
2019-04-05T05:51:20.200Z,30.10
2019-04-05T05:53:50.105Z,30.88
2019-04-05T05:56:19.653Z,28.05
2019-04-05T05:58:49.198Z,28.77
2019-04-05T06:01:18.992Z,33.40
2019-04-05T06:03:48.904Z,34.13
2019-04-05T06:06:18.688Z,28.73
2019-04-05T06:08:48.401Z,29.90
2019-04-05T06:11:18.133Z,32.93
2019-04-05T06:13:47.696Z,29.15
2019-04-05T06:16:17.594Z,32.58
2019-04-05T06:18:48.646Z,31.23
2019-04-05T06:21:19.281Z,31.33
2019-04-05T06:23:48.964Z,30.95
2019-04-05T06:26:18.537Z,29.02
2019-04-05T06:28:48.309Z,33.33
2019-04-05T06:31:18.026Z,27.82
2019-04-05T06:33:47.629Z,27.48
2019-04-05T06:36:17.337Z,29.65
2019-04-05T06:38:46.949Z,31.07
2019-04-05T06:41:16.806Z,31.97
2019-04-05T06:43:46.576Z,26.33
2019-04-05T06:46:16.293Z,24.35
2019-04-05T06:48:46.170Z,30.97
2019-04-05T06:51:17.000Z,32.05
2019-04-05T06:53:46.752Z,25.68
2019-04-05T06:56:17.291Z,32.73
2019-04-05T06:58:47.051Z,34.03
2019-04-05T07:01:17.075Z,27.37
2019-04-05T07:03:46.750Z,32.08
2019-04-05T07:06:16.486Z,28.52
2019-04-05T07:08:53.886Z,29.12
2019-04-05T07:11:19.528Z,28.07
2019-04-05T07:13:49.178Z,33.92
2019-04-05T07:16:20.796Z,25.48
2019-04-05T07:18:50.406Z,27.87
2019-04-05T07:21:20.047Z,27.87
2019-04-05T07:23:53.423Z,28.35
2019-04-05T07:26:23.497Z,28.12
2019-04-05T07:28:53.223Z,30.35
2019-04-05T07:31:23.112Z,27.48
2019-04-05T07:33:56.097Z,29.55
2019-04-05T07:36:24.977Z,25.48
2019-04-05T07:38:54.593Z,30.85
2019-04-05T07:41:24.288Z,27.05
2019-04-05T07:43:54.059Z,22.55
2019-04-05T07:46:23.753Z,25.08
2019-04-05T07:48:53.414Z,23.38
2019-04-05T07:51:23.047Z,24.32
2019-04-05T07:53:52.646Z,22.45
2019-04-05T07:56:42.152Z,28.07
2019-04-05T07:59:13.979Z,23.57
2019-04-05T08:01:43.266Z,23.05
2019-04-05T08:04:12.926Z,24.75
2019-04-05T08:06:43.758Z,27.50
2019-04-05T08:09:15.844Z,23.45
2019-04-05T08:11:46.590Z,24.12
2019-04-05T08:14:18.697Z,16.52
2019-04-05T08:16:48.505Z,20.12
2019-04-05T08:19:18.074Z,23.12
2019-04-05T08:21:47.627Z,24.30
2019-04-05T08:24:17.629Z,19.37
2019-04-05T08:26:47.260Z,23.15
2019-04-05T08:29:17.030Z,25.85
2019-04-05T08:31:46.874Z,18.00
2019-04-05T08:34:16.514Z,21.90
2019-04-05T08:36:46.272Z,15.13
2019-04-05T08:39:15.911Z,19.45
2019-04-05T08:41:45.456Z,22.07
2019-04-05T08:44:16.011Z,19.00
2019-04-05T08:46:45.725Z,19.90
2019-04-05T08:49:15.290Z,16.87
2019-04-05T08:51:45.193Z,17.48
2019-04-05T08:54:14.811Z,17.55
2019-04-05T08:56:44.589Z,19.37
2019-04-05T08:59:14.376Z,14.30
2019-04-05T09:01:44.052Z,22.07
2019-04-05T09:04:14.122Z,17.95
2019-04-05T09:06:44.008Z,12.30
2019-04-05T09:09:13.683Z,18.40
2019-04-05T09:11:46.641Z,17.12
2019-04-05T09:14:16.235Z,21.50
2019-04-05T09:16:45.850Z,16.62
2019-04-05T09:19:23.596Z,25.90
2019-04-05T09:21:47.826Z,21.82
2019-04-05T09:24:17.366Z,18.57
2019-04-05T09:26:46.975Z,15.95
2019-04-05T09:29:16.558Z,18.85
2019-04-05T09:31:46.202Z,21.37
2019-04-05T09:34:19.099Z,17.20
2019-04-05T09:36:49.619Z,15.05
2019-04-05T09:39:19.160Z,13.53
2019-04-05T09:41:48.736Z,22.10
2019-04-05T09:44:18.426Z,15.55
2019-04-05T09:46:50.996Z,15.63
2019-04-05T09:49:19.296Z,14.28
2019-04-05T09:51:48.925Z,16.50
2019-04-05T09:54:18.493Z,18.27
2019-04-05T09:56:48.122Z,14.93
2019-04-05T09:59:17.888Z,19.52
2019-04-05T10:01:53.489Z,16.25
2019-04-05T10:04:23.057Z,18.25
2019-04-05T10:06:52.587Z,15.10
2019-04-05T10:09:22.293Z,13.15
2019-04-05T10:11:51.954Z,15.58
2019-04-05T10:14:21.543Z,16.70
2019-04-05T10:16:51.384Z,12.00
2019-04-05T10:19:20.880Z,15.05
2019-04-05T10:21:50.442Z,11.35
2019-04-05T10:24:20.014Z,14.07
2019-04-05T10:26:49.682Z,15.78
2019-04-05T10:29:19.402Z,12.82
2019-04-05T10:31:49.031Z,15.25
2019-04-05T10:34:18.640Z,14.23
2019-04-05T10:36:48.262Z,12.43
2019-04-05T10:39:17.943Z,16.45
2019-04-05T10:41:47.822Z,11.45
2019-04-05T10:44:18.479Z,11.22
2019-04-05T10:46:48.122Z,12.10
2019-04-05T10:49:17.886Z,12.60
2019-04-05T10:51:47.569Z,11.78
2019-04-05T10:54:17.614Z,16.40
2019-04-05T10:56:47.264Z,14.28
2019-04-05T10:59:19.795Z,15.68
2019-04-05T11:01:49.334Z,14.75
2019-04-05T11:04:20.155Z,11.70
2019-04-05T11:06:49.744Z,13.28
2019-04-05T11:09:20.752Z,21.10
2019-04-05T11:11:50.340Z,21.40
2019-04-05T11:14:20.308Z,21.15
2019-04-05T11:16:58.512Z,13.13
2019-04-05T11:19:21.400Z,12.20
2019-04-05T11:21:52.371Z,10.58
2019-04-05T11:24:22.187Z,9.75
2019-04-05T11:26:52.173Z,9.48
2019-04-05T11:42:24.294Z,14.00
2019-04-05T11:59:21.547Z,15.32
2019-04-05T12:02:13.391Z,14.43
2019-04-05T12:04:44.782Z,16.15
2019-04-05T12:10:41.986Z,12.55
2019-04-05T12:13:41.271Z,12.15
2019-04-05T12:16:17.404Z,15.18
2019-04-05T12:18:47.360Z,15.32
2019-04-05T12:21:17.390Z,14.78
2019-04-05T12:23:48.020Z,13.75
2019-04-05T12:26:18.013Z,12.60
2019-04-05T12:28:47.824Z,9.85
2019-04-05T12:31:19.754Z,13.98
2019-04-05T12:33:52.406Z,11.05
2019-04-05T12:36:22.294Z,11.33
2019-04-05T12:38:54.447Z,16.87
2019-04-05T12:41:25.759Z,12.45
2019-04-05T12:43:55.573Z,18.12
2019-04-05T12:46:31.258Z,13.08
2019-04-05T12:49:03.418Z,14.98
2019-04-05T12:51:33.548Z,16.90
2019-04-05T12:54:06.622Z,21.73
2019-04-05T12:56:38.624Z,14.65
2019-04-05T12:59:10.347Z,15.03
2019-04-05T13:01:40.118Z,19.37
2019-04-05T13:07:01.350Z,25.52
2019-04-05T13:09:31.495Z,29.10
2019-04-05T13:12:04.558Z,25.45
2019-04-05T13:14:34.649Z,32.05
2019-04-05T13:17:10.036Z,27.85
2019-04-05T13:20:12.182Z,30.17
2019-04-05T13:22:39.574Z,23.40
2019-04-05T13:25:15.468Z,23.20
2019-04-05T13:27:51.677Z,23.42
2019-04-05T13:30:18.698Z,20.37
2019-04-05T13:33:08.106Z,23.90
2019-04-05T13:35:42.251Z,17.27
2019-04-05T13:38:12.085Z,19.85
2019-04-05T13:40:42.522Z,20.05
2019-04-05T13:43:12.260Z,21.55
2019-04-05T13:45:42.321Z,25.57
2019-04-05T13:48:15.115Z,19.35
2019-04-05T13:50:46.158Z,21.17
2019-04-05T13:53:23.235Z,23.12
2019-04-05T14:00:49.783Z,23.02
2019-04-05T14:15:31.418Z,26.60
2019-04-05T14:20:59.550Z,29.95
2019-04-05T14:23:39.138Z,40.50
2019-04-05T14:29:13.572Z,37.98
2019-04-05T14:32:23.434Z,36.98
2019-04-05T14:35:24.866Z,36.25
2019-04-05T14:38:43.491Z,30.08
2019-04-05T14:54:09.684Z,27.52
2019-04-05T15:00:37.051Z,42.40
2019-04-05T15:04:34.697Z,39.42
2019-04-05T15:06:55.734Z,33.65
2019-04-05T15:12:36.459Z,39.88
2019-04-05T15:13:30.789Z,35.20
2019-04-05T15:16:00.232Z,39.65
2019-04-05T15:18:29.800Z,32.28
2019-04-05T15:20:59.271Z,29.60
2019-04-05T15:23:29.048Z,35.60
2019-04-05T15:26:20.419Z,34.95
2019-04-05T15:28:48.883Z,27.93
2019-04-05T15:31:18.392Z,34.83
2019-04-05T15:33:47.959Z,27.73
2019-04-05T15:36:17.472Z,36.40
2019-04-05T15:38:47.150Z,35.35
2019-04-05T15:41:16.749Z,28.75
2019-04-05T15:43:46.355Z,29.23
2019-04-05T15:46:17.302Z,32.73
2019-04-05T15:48:46.979Z,36.23
2019-04-05T15:51:16.466Z,36.05
2019-04-05T15:53:46.245Z,36.40
2019-04-05T15:56:15.782Z,34.48
2019-04-05T15:58:45.348Z,30.65
2019-04-05T16:01:14.961Z,25.23
2019-04-05T16:03:44.466Z,31.48
2019-04-05T16:06:14.120Z,27.60
2019-04-05T16:08:43.915Z,32.78
2019-04-05T16:11:13.631Z,30.05
2019-04-05T16:13:43.570Z,39.30
2019-04-05T16:16:13.042Z,36.42
2019-04-05T16:18:42.556Z,45.20
2019-04-05T16:21:12.081Z,43.02
2019-04-05T16:23:41.625Z,47.90
2019-04-05T16:26:11.185Z,62.73
2019-04-05T16:28:41.226Z,37.83
2019-04-05T16:31:10.998Z,35.10
2019-04-05T16:33:40.698Z,32.13
2019-04-05T16:36:10.343Z,22.48
2019-04-05T16:38:40.021Z,22.37
2019-04-05T16:41:09.798Z,20.02
2019-04-05T16:43:39.261Z,27.35
2019-04-05T16:46:09.066Z,27.40
2019-04-05T16:48:38.645Z,24.63
2019-04-05T16:51:28.733Z,22.65
2019-04-05T16:54:04.813Z,28.40
2019-04-05T16:56:34.287Z,24.27
2019-04-05T16:59:03.913Z,25.15
2019-04-05T17:01:33.434Z,21.95
2019-04-05T17:04:03.057Z,23.22
2019-04-05T17:06:32.631Z,26.90
2019-04-05T17:09:02.254Z,28.27
2019-04-05T17:11:31.683Z,22.67
2019-04-05T17:14:01.260Z,29.32
2019-04-05T17:16:30.919Z,26.65
2019-04-05T17:19:00.429Z,23.42
2019-04-05T17:21:30.047Z,27.90
2019-04-05T17:23:59.621Z,28.27
2019-04-05T17:26:29.211Z,27.65
2019-04-05T17:28:58.902Z,24.27
2019-04-05T17:31:28.427Z,29.72
2019-04-05T17:33:58.006Z,25.52
2019-04-05T17:36:27.810Z,34.60
2019-04-05T17:38:57.331Z,28.00
2019-04-05T17:41:26.972Z,25.45
2019-04-05T17:43:56.501Z,28.00
2019-04-05T17:46:26.105Z,27.35
2019-04-05T17:48:55.776Z,32.23
2019-04-05T17:51:25.871Z,30.95
2019-04-05T17:53:55.417Z,33.23
2019-04-05T17:56:25.219Z,26.95
2019-04-05T17:58:56.395Z,24.60
2019-04-05T18:01:26.137Z,21.45
2019-04-05T18:03:55.718Z,20.77
2019-04-05T18:06:25.363Z,27.20
2019-04-05T18:08:54.902Z,19.05
2019-04-05T18:11:24.429Z,20.43
2019-04-05T18:13:54.063Z,21.12
2019-04-05T18:16:23.705Z,22.30
2019-04-05T18:18:53.297Z,18.98
2019-04-05T18:21:22.917Z,20.55
2019-04-05T18:23:52.840Z,18.48
2019-04-05T18:26:22.349Z,22.87
2019-04-05T18:28:52.048Z,24.75
2019-04-05T18:31:22.308Z,19.87
2019-04-05T18:33:51.840Z,22.05
2019-04-05T18:36:21.408Z,22.10
2019-04-05T18:38:50.901Z,20.85
2019-04-05T18:41:20.442Z,17.95
2019-04-05T18:43:49.957Z,27.60
2019-04-05T18:46:19.399Z,24.98
2019-04-05T18:48:48.886Z,22.30
2019-04-05T18:51:19.229Z,23.90
2019-04-05T18:53:48.724Z,25.95
2019-04-05T18:56:20.812Z,25.65
2019-04-05T18:58:50.345Z,22.80
2019-04-05T19:01:19.777Z,19.85
2019-04-05T19:03:50.735Z,21.82
2019-04-05T19:06:20.327Z,25.55
2019-04-05T19:08:49.845Z,23.12
2019-04-05T19:11:19.369Z,31.95
2019-04-05T19:14:00.388Z,19.12
2019-04-05T19:16:19.992Z,24.52
2019-04-05T19:18:49.546Z,32.40
2019-04-05T19:21:19.045Z,29.12
2019-04-05T19:23:50.947Z,31.82
2019-04-05T19:26:19.901Z,25.55
2019-04-05T19:28:49.356Z,29.23
2019-04-05T19:48:57.749Z,19.00
2019-04-05T19:51:27.299Z,27.98
2019-04-05T19:54:01.303Z,27.55
2019-04-05T19:56:28.022Z,27.50
2019-04-05T19:58:57.523Z,25.25
2019-04-05T20:01:26.987Z,26.23
2019-04-05T20:03:56.518Z,24.57
2019-04-05T20:06:26.239Z,31.87
2019-04-05T20:08:55.677Z,22.42
2019-04-05T20:11:25.254Z,29.42
2019-04-05T20:13:54.737Z,24.75
2019-04-05T20:16:24.837Z,31.45
2019-04-05T20:18:54.342Z,25.55
2019-04-05T20:21:23.920Z,32.65
2019-04-05T20:23:53.430Z,34.25
2019-04-05T20:26:22.942Z,29.80
2019-04-05T20:28:52.694Z,29.30
2019-04-05T20:31:22.295Z,26.27
2019-04-05T20:33:51.820Z,27.67
2019-04-05T20:36:21.277Z,27.87
2019-04-05T20:38:50.828Z,31.07
2019-04-05T20:41:20.382Z,29.32
2019-04-05T20:43:50.699Z,32.33
2019-04-05T20:46:20.223Z,46.08
2019-04-05T20:48:49.813Z,31.97
2019-04-05T20:51:19.323Z,29.05
2019-04-05T20:53:48.826Z,30.82
2019-04-05T20:56:18.564Z,30.23
2019-04-05T20:58:48.099Z,40.00
2019-04-05T21:01:17.677Z,31.68
2019-04-05T21:03:47.246Z,31.57
2019-04-05T21:06:17.299Z,32.23
2019-04-05T21:08:46.907Z,32.20
2019-04-05T21:11:16.413Z,35.48
2019-04-05T21:13:46.256Z,41.60
2019-04-05T21:16:15.921Z,37.40
2019-04-05T21:18:45.593Z,38.05
2019-04-05T21:21:15.187Z,34.25
2019-04-05T21:23:44.684Z,33.95
2019-04-05T21:26:14.266Z,42.90
2019-04-05T21:28:43.778Z,41.88
2019-04-05T21:31:13.309Z,38.92
2019-04-05T21:33:42.858Z,39.33
2019-04-05T21:36:12.479Z,46.15
2019-04-05T21:38:43.033Z,39.38
2019-04-05T21:41:13.268Z,51.33
2019-04-05T21:43:42.838Z,38.42
2019-04-05T21:46:12.321Z,44.10
2019-04-05T21:48:41.906Z,44.70
2019-04-05T21:51:11.615Z,45.35
2019-04-05T21:53:41.197Z,48.68
2019-04-05T21:56:10.702Z,50.98
2019-04-05T21:58:40.329Z,46.08
2019-04-05T22:01:10.573Z,50.17
2019-04-05T22:03:40.339Z,45.70
2019-04-05T22:06:09.959Z,49.08
2019-04-05T22:08:39.501Z,43.52
2019-04-05T22:11:09.079Z,47.48
2019-04-05T22:13:38.635Z,48.02
2019-04-05T22:16:08.157Z,45.80
2019-04-05T22:18:37.695Z,51.88
2019-04-05T22:21:07.779Z,51.83
2019-04-05T22:23:37.578Z,60.78
2019-04-05T22:26:07.683Z,59.90
2019-04-05T22:28:39.710Z,50.52
2019-04-05T22:31:09.190Z,49.58
2019-04-05T22:33:39.490Z,58.52
2019-04-05T22:36:09.638Z,56.40
2019-04-05T22:38:39.284Z,62.23
2019-04-05T22:41:08.799Z,61.50
2019-04-05T22:43:38.442Z,60.83
2019-04-05T22:46:08.019Z,67.45
2019-04-05T22:48:37.699Z,61.35
2019-04-05T22:51:07.207Z,71.47
2019-04-05T22:53:38.884Z,63.85
2019-04-05T22:56:10.698Z,57.17
2019-04-05T22:58:40.344Z,61.65
2019-04-05T23:01:09.878Z,58.48
2019-04-05T23:03:39.476Z,56.90
2019-04-05T23:06:09.062Z,62.95
2019-04-05T23:08:38.587Z,68.85
2019-04-05T23:11:08.245Z,60.95
2019-04-05T23:13:37.864Z,63.00
2019-04-05T23:16:07.343Z,74.45
2019-04-05T23:18:36.895Z,64.03
2019-04-05T23:21:06.410Z,61.02
2019-04-05T23:23:35.962Z,77.32
2019-04-05T23:26:05.450Z,62.45
2019-04-05T23:28:34.973Z,69.45
2019-04-05T23:31:04.479Z,64.58
2019-04-05T23:33:34.031Z,75.57
2019-04-05T23:36:03.533Z,59.95
2019-04-05T23:38:33.286Z,65.25
2019-04-05T23:41:04.309Z,58.33
2019-04-05T23:43:34.413Z,61.55
2019-04-05T23:46:03.957Z,59.48
2019-04-05T23:48:33.634Z,64.37
2019-04-05T23:51:03.139Z,62.15
2019-04-05T23:53:32.683Z,61.20
2019-04-05T23:56:02.249Z,60.78
2019-04-05T23:58:31.804Z,65.32
